Time;durP1;ratioP1;P1;durP2;ratioP2;P2;SDS_P1;SDS_P2;PMS_P1;PMS_P2;Temp;Humidity;BMP_temperature;BMP_pressure;BME280_temperature;BME280_humidity;BME280_pressure;Samples;Min_cycle;Max_cycle;Signal;HPM_P1;HPM_P2
2023/01/15 00:00:32;;;;;;;6.20;1.40;;;;;;;7.79;100.00;100008.03;5260276;28;20024;-77
2023/01/15 00:03:02;;;;;;;8.77;1.63;;;;;;;7.80;100.00;100015.03;5234889;28;20028;-77
2023/01/15 00:05:36;;;;;;;5.30;1.40;;;;;;;7.74;100.00;100016.56;5227674;28;20112;-77
2023/01/15 00:08:06;;;;;;;13.15;1.58;;;;;;;7.76;100.00;100003.84;5246768;28;20032;-77
2023/01/15 00:10:37;;;;;;;4.95;1.63;;;;;;;7.74;100.00;100002.38;5246759;28;20025;-78
2023/01/15 00:13:07;;;;;;;10.05;2.00;;;;;;;7.69;100.00;100004.72;5246410;28;20075;-77
2023/01/15 00:15:38;;;;;;;14.05;1.58;;;;;;;7.70;100.00;100001.88;5255929;28;20074;-77
2023/01/15 00:18:09;;;;;;;9.55;1.20;;;;;;;7.72;100.00;99999.84;5253606;28;20035;-77
2023/01/15 00:20:39;;;;;;;9.00;1.58;;;;;;;7.72;100.00;99991.00;5256912;28;20044;-77
2023/01/15 00:27:37;;;;;;;10.80;1.77;;;;;;;7.66;100.00;99986.34;5246944;28;20448;-77
2023/01/15 00:28:49;;;;;;;12.10;1.60;;;;;;;7.64;100.00;99988.38;5246651;28;20021;-77
2023/01/15 00:31:20;;;;;;;11.30;1.52;;;;;;;7.62;100.00;99990.34;5246484;28;20081;-77
2023/01/15 00:33:50;;;;;;;8.50;1.90;;;;;;;7.58;100.00;100000.56;5246747;28;20484;-77
2023/01/15 00:36:21;;;;;;;18.45;1.70;;;;;;;7.59;100.00;100006.72;5246711;28;20085;-77
2023/01/15 00:38:52;;;;;;;15.88;1.92;;;;;;;7.58;100.00;100002.38;5248199;28;20431;-77
2023/01/15 00:41:22;;;;;;;8.73;1.58;;;;;;;7.59;100.00;100002.22;5261157;28;20036;-77
2023/01/15 00:43:53;;;;;;;13.57;1.60;;;;;;;7.62;100.00;99987.69;5245572;28;20025;-77
2023/01/15 00:46:24;;;;;;;12.32;1.70;;;;;;;7.61;100.00;99996.69;5225928;28;20099;-77
2023/01/15 00:48:54;;;;;;;14.65;2.00;;;;;;;7.62;100.00;99995.69;5225793;28;20446;-77
2023/01/15 00:51:27;;;;;;;14.20;2.00;;;;;;;7.62;100.00;100001.88;5244065;28;20025;-77
2023/01/15 00:53:58;;;;;;;10.70;2.75;;;;;;;7.60;100.00;100011.88;5244280;28;20043;-77
2023/01/15 00:56:29;;;;;;;10.77;2.15;;;;;;;7.62;100.00;99995.69;5226063;28;20020;-77
2023/01/15 00:59:04;;;;;;;14.20;1.75;;;;;;;7.62;100.00;100004.53;5248122;28;20016;-77
2023/01/15 01:01:34;;;;;;;17.30;1.95;;;;;;;7.61;100.00;100010.03;5251925;28;20366;-77
2023/01/15 01:04:05;;;;;;;15.02;1.83;;;;;;;7.66;100.00;100010.38;5231038;28;20020;-77
2023/01/15 01:06:35;;;;;;;8.90;1.67;;;;;;;7.60;100.00;100011.06;5243398;28;20504;-77
2023/01/15 01:09:06;;;;;;;10.35;1.58;;;;;;;7.62;100.00;100017.03;5226267;28;20036;-76
2023/01/15 01:11:36;;;;;;;14.75;1.58;;;;;;;7.63;100.00;100013.38;5245740;28;20571;-77
2023/01/15 01:14:09;;;;;;;21.65;2.17;;;;;;;7.59;100.00;100006.72;5247791;28;20031;-77
2023/01/15 01:16:41;;;;;;;14.48;2.65;;;;;;;7.57;100.00;99996.19;5260788;28;20078;-77
2023/01/15 01:19:15;;;;;;;9.43;1.67;;;;;;;7.62;100.00;100017.03;5247812;28;20103;-77
2023/01/15 01:21:47;;;;;;;7.43;1.58;;;;;;;7.61;100.00;100018.06;5229657;28;20107;-77
2023/01/15 01:24:22;;;;;;;15.68;2.10;;;;;;;7.62;100.00;100015.22;5246730;28;20031;-77
2023/01/15 01:26:53;;;;;;;13.32;3.55;;;;;;;7.62;100.00;100019.72;5247372;28;20021;-77
2023/01/15 01:29:24;;;;;;;10.10;1.73;;;;;;;7.57;100.00;100017.53;5247402;28;20075;-77
2023/01/15 01:31:54;;;;;;;14.75;2.15;;;;;;;7.51;100.00;100008.38;5230007;28;20115;-77
2023/01/15 01:34:25;;;;;;;13.00;2.53;;;;;;;7.52;100.00;100018.03;5247487;28;20104;-77
2023/01/15 01:36:55;;;;;;;5.88;1.40;;;;;;;7.48;100.00;100003.38;5229142;28;20029;-77
2023/01/15 01:39:26;;;;;;;9.77;1.55;;;;;;;7.53;100.00;100003.72;5247275;28;20033;-76
2023/01/15 01:41:56;;;;;;;19.42;2.65;;;;;;;7.49;100.00;100007.72;5247246;28;20147;-77
2023/01/15 01:44:35;;;;;;;11.57;1.55;;;;;;;7.50;100.00;100019.22;5229391;28;20028;-77
2023/01/15 01:47:14;;;;;;;10.35;2.33;;;;;;;7.47;100.00;100020.38;5228827;28;20506;-77
2023/01/15 01:49:47;;;;;;;7.68;1.70;;;;;;;7.49;100.00;100020.22;5232489;28;20028;-78
2023/01/15 01:52:24;;;;;;;16.13;1.90;;;;;;;7.48;100.00;100016.72;5248233;28;20677;-77
2023/01/15 01:54:55;;;;;;;9.20;1.60;;;;;;;7.46;100.00;100017.88;5250210;28;20067;-77
2023/01/15 01:57:25;;;;;;;14.82;1.77;;;;;;;7.37;100.00;100022.38;5230473;28;20023;-78
2023/01/15 01:59:57;;;;;;;15.50;2.10;;;;;;;7.39;100.00;100027.56;5260878;28;20016;-77
2023/01/15 02:02:27;;;;;;;12.27;2.15;;;;;;;7.41;100.00;100026.38;5231036;28;20058;-77
2023/01/15 02:04:58;;;;;;;13.98;2.67;;;;;;;7.41;100.00;100013.03;5247970;28;20465;-77
2023/01/15 02:07:32;;;;;;;10.18;1.80;;;;;;;7.37;100.00;100022.38;5247112;28;20028;-77
2023/01/15 02:10:03;;;;;;;10.60;1.58;;;;;;;7.32;100.00;100014.03;5245810;28;20029;-77
2023/01/15 02:12:37;;;;;;;10.20;1.60;;;;;;;7.31;100.00;100008.88;5228726;28;20644;-77
2023/01/15 02:15:22;;;;;;;11.23;1.63;;;;;;;7.27;100.00;100003.03;5246366;28;20020;-77
2023/01/15 02:18:18;;;;;;;14.63;3.47;;;;;;;7.25;100.00;100005.03;5246144;28;20077;-77
2023/01/15 02:21:03;;;;;;;13.45;2.10;;;;;;;7.23;100.00;100007.88;5241252;28;20098;-77
2023/01/15 02:24:15;;;;;;;7.75;1.52;;;;;;;7.20;100.00;100010.84;5246663;28;20025;-77
2023/01/15 02:27:10;;;;;;;11.35;1.90;;;;;;;7.22;100.00;100010.69;5125074;28;20035;-77
2023/01/15 02:29:48;;;;;;;9.82;1.92;;;;;;;7.17;100.00;99994.34;5226206;28;20056;-77
2023/01/15 02:32:38;;;;;;;10.73;1.65;;;;;;;7.13;100.00;99990.31;5228210;28;20032;-77
2023/01/15 02:35:13;;;;;;;14.85;2.17;;;;;;;7.14;100.00;99998.19;5245731;28;20032;-77
2023/01/15 02:37:50;;;;;;;11.20;1.48;;;;;;;7.10;100.00;99996.00;5227807;28;20024;-77
2023/01/15 02:40:23;;;;;;;12.13;1.65;;;;;;;7.03;100.00;99994.97;5245987;28;20029;-77
2023/01/15 02:42:55;;;;;;;8.43;2.50;;;;;;;7.02;100.00;99991.47;5232539;28;20024;-77
2023/01/15 02:45:31;;;;;;;13.82;1.88;;;;;;;7.02;100.00;99983.47;5245230;28;20063;-77
2023/01/15 02:48:08;;;;;;;13.45;1.80;;;;;;;7.00;100.00;99991.66;5245411;28;20049;-77
2023/01/15 02:50:47;;;;;;;15.85;2.42;;;;;;;7.00;100.00;99991.66;5227832;28;20029;-77
2023/01/15 02:53:26;;;;;;;14.75;2.00;;;;;;;7.03;100.00;100005.66;5245911;28;20028;-77
2023/01/15 02:56:06;;;;;;;12.45;1.88;;;;;;;7.06;100.00;100002.66;5227804;28;20028;-77
2023/01/15 02:58:44;;;;;;;21.27;2.60;;;;;;;7.02;100.00;99999.47;5228843;28;20507;-77
2023/01/15 03:01:21;;;;;;;11.80;2.63;;;;;;;7.04;100.00;99991.34;5239384;28;20274;-77
2023/01/15 03:04:02;;;;;;;15.70;3.25;;;;;;;7.06;100.00;99992.00;5233219;28;20028;-77
2023/01/15 03:06:48;;;;;;;18.42;2.53;;;;;;;7.01;100.00;100000.50;5244943;28;20710;-77
2023/01/15 03:09:20;;;;;;;13.27;2.35;;;;;;;7.01;100.00;99990.66;5245990;28;20384;-77
2023/01/15 03:11:55;;;;;;;13.38;2.30;;;;;;;6.99;100.00;100000.66;5244897;28;20565;-77
2023/01/15 03:14:43;;;;;;;14.18;1.52;;;;;;;6.97;100.00;99996.47;5257166;28;20070;-77
2023/01/15 03:17:22;;;;;;;11.15;1.90;;;;;;;6.90;100.00;99990.97;5233701;28;20027;-77
2023/01/15 03:20:01;;;;;;;17.88;2.08;;;;;;;6.85;100.00;99990.63;5245640;28;20027;-77
2023/01/15 03:22:37;;;;;;;10.55;1.92;;;;;;;6.83;100.00;99994.44;5246912;28;20028;-77
2023/01/15 03:25:15;;;;;;;17.38;2.92;;;;;;;6.83;100.00;99991.78;5246029;28;20032;-77
2023/01/15 03:27:46;;;;;;;48.40;4.68;;;;;;;6.83;100.00;100003.28;5245721;28;20017;-77
2023/01/15 03:30:20;;;;;;;13.60;1.70;;;;;;;6.82;100.00;100004.28;5227902;28;20535;-77
2023/01/15 03:32:53;;;;;;;18.33;2.08;;;;;;;6.80;100.00;99997.44;5246296;28;20043;-77
2023/01/15 03:35:56;;;;;;;17.58;2.03;;;;;;;6.77;100.00;100005.75;5247341;28;20033;-77
2023/01/15 03:38:30;;;;;;;11.40;1.63;;;;;;;6.75;100.00;100003.25;5217274;28;20032;-77
2023/01/15 03:41:13;;;;;;;5.63;1.30;;;;;;;6.69;100.00;99985.25;5259701;28;20040;-77
2023/01/15 03:44:05;;;;;;;8.68;1.95;;;;;;;6.65;100.00;99986.56;5245863;28;20059;-77
2023/01/15 03:46:46;;;;;;;18.73;2.03;;;;;;;6.68;100.00;99987.09;5245894;28;20024;-77
2023/01/15 03:49:33;;;;;;;8.60;1.63;;;;;;;6.67;100.00;99992.56;5228410;28;20029;-77
2023/01/15 03:52:15;;;;;;;20.10;3.35;;;;;;;6.69;100.00;99990.59;5245544;28;20448;-77
2023/01/15 03:55:13;;;;;;;11.10;1.50;;;;;;;6.70;100.00;99981.59;5245419;28;20366;-77
2023/01/15 03:57:56;;;;;;;11.63;1.60;;;;;;;6.67;100.00;99982.72;5231985;28;20025;-77
2023/01/15 04:00:32;;;;;;;13.30;1.90;;;;;;;6.68;100.00;99987.09;5257878;28;20056;-77
2023/01/15 04:03:06;;;;;;;11.23;1.63;;;;;;;6.67;100.00;99984.56;5245613;28;20032;-77
2023/01/15 04:05:39;;;;;;;11.32;1.50;;;;;;;6.67;100.00;99989.91;5244757;28;20028;-77
2023/01/15 04:08:12;;;;;;;9.00;1.25;;;;;;;6.68;100.00;99986.25;5244922;28;20028;-77
2023/01/15 04:10:54;;;;;;;11.98;1.95;;;;;;;6.69;100.00;99982.59;5245873;28;20028;-77
2023/01/15 04:13:25;;;;;;;10.85;1.98;;;;;;;6.68;100.00;99981.75;5245638;28;20024;-77
2023/01/15 04:15:56;;;;;;;12.32;2.15;;;;;;;6.72;100.00;99980.41;5246386;28;20113;-77
2023/01/15 04:18:27;;;;;;;10.93;1.67;;;;;;;6.71;100.00;99986.75;5245116;28;20025;-77
2023/01/15 04:20:58;;;;;;;11.55;1.60;;;;;;;6.73;100.00;99995.44;5245712;28;20021;-77
2023/01/15 04:23:28;;;;;;;17.15;1.58;;;;;;;6.71;100.00;99993.91;5258218;28;20033;-77
2023/01/15 04:25:59;;;;;;;9.35;1.50;;;;;;;6.71;100.00;99988.59;5244701;28;20024;-77
2023/01/15 04:28:29;;;;;;;10.35;1.40;;;;;;;6.67;100.00;99995.22;5244350;28;20069;-76
2023/01/15 04:31:00;;;;;;;9.48;1.20;;;;;;;6.67;100.00;100000.56;5227111;28;20459;-77
2023/01/15 04:33:30;;;;;;;9.18;1.45;;;;;;;6.64;100.00;99991.06;5245341;28;20021;-77
2023/01/15 04:36:02;;;;;;;11.27;1.65;;;;;;;6.62;100.00;100013.53;5244914;28;20024;-77
2023/01/15 04:38:33;;;;;;;6.78;1.25;;;;;;;6.60;100.00;100016.38;5244555;28;20017;-77
2023/01/15 04:44:06;;;;;;;8.40;1.17;;;;;;;6.55;100.00;100025.84;5244923;28;20024;-77
2023/01/15 04:46:37;;;;;;;14.73;2.10;;;;;;;6.51;100.00;100020.00;5246834;28;20429;-77
2023/01/15 04:49:14;;;;;;;11.75;1.20;;;;;;;6.53;100.00;100014.53;5261596;28;20400;-76
2023/01/15 04:51:45;;;;;;;6.55;1.15;;;;;;;6.53;100.00;100010.03;5247789;28;20073;-76
2023/01/15 04:54:17;;;;;;;12.10;1.83;;;;;;;6.55;100.00;100020.50;5247804;28;20028;-76
2023/01/15 04:56:50;;;;;;;10.23;2.70;;;;;;;6.57;100.00;100005.19;5247123;28;20066;-76
2023/01/15 04:59:23;;;;;;;13.30;1.40;;;;;;;6.57;100.00;100021.19;5254668;28;20023;-76
2023/01/15 05:01:54;;;;;;;13.77;1.63;;;;;;;6.54;100.00;100021.53;5253290;28;20054;-76
2023/01/15 05:04:24;;;;;;;9.10;1.20;;;;;;;6.56;100.00;100014.19;5229960;28;20025;-75
2023/01/15 05:06:55;;;;;;;10.80;1.20;;;;;;;6.59;100.00;100003.22;5246939;28;20177;-76
2023/01/15 05:09:25;;;;;;;6.45;1.13;;;;;;;6.55;100.00;100004.53;5241036;28;20047;-76
2023/01/15 05:11:56;;;;;;;7.07;1.40;;;;;;;6.54;100.00;99993.03;5231430;28;20029;-76
2023/01/15 05:14:26;;;;;;;9.73;1.13;;;;;;;6.51;100.00;99990.69;5247804;28;20079;-76
2023/01/15 05:16:57;;;;;;;12.35;1.77;;;;;;;6.51;100.00;99995.19;5246956;28;20028;-76
2023/01/15 05:19:27;;;;;;;7.95;1.30;;;;;;;6.43;100.00;99988.84;5247196;28;20500;-75
2023/01/15 05:21:58;;;;;;;12.48;1.42;;;;;;;6.45;100.00;99991.34;5247424;28;20025;-76
2023/01/15 05:24:28;;;;;;;6.32;1.10;;;;;;;6.54;100.00;100000.19;5247393;28;20028;-76
2023/01/15 05:26:59;;;;;;;10.25;1.67;;;;;;;6.49;100.00;99993.50;5247442;28;20125;-76
2023/01/15 05:29:29;;;;;;;7.35;1.33;;;;;;;6.46;100.00;99999.16;5247351;28;20108;-75
2023/01/15 05:32:00;;;;;;;6.70;1.10;;;;;;;6.48;100.00;100005.19;5248658;28;20020;-75
2023/01/15 05:34:30;;;;;;;7.72;1.48;;;;;;;6.47;100.00;99994.66;5248467;28;20473;-75
2023/01/15 05:37:01;;;;;;;8.23;1.40;;;;;;;6.40;100.00;99988.31;5247091;28;20025;-75
2023/01/15 05:39:31;;;;;;;8.35;1.52;;;;;;;6.42;100.00;99992.47;5247070;28;20476;-75
2023/01/15 05:42:02;;;;;;;11.00;1.40;;;;;;;6.37;100.00;99989.44;5247149;28;20032;-75
2023/01/15 05:44:32;;;;;;;10.38;1.42;;;;;;;6.35;100.00;99994.13;5246814;28;20055;-76
2023/01/15 05:47:05;;;;;;;11.38;1.65;;;;;;;6.31;100.00;99981.28;5246540;28;20056;-76
2023/01/15 05:49:36;;;;;;;8.55;1.33;;;;;;;6.30;100.00;99996.44;5233841;28;20392;-76
2023/01/15 05:52:07;;;;;;;8.68;1.42;;;;;;;6.27;100.00;100002.06;5246897;28;20028;-76
2023/01/15 05:54:37;;;;;;;6.75;1.20;;;;;;;6.22;100.00;99994.56;5246903;28;20070;-76
2023/01/15 05:57:11;;;;;;;12.00;1.90;;;;;;;6.19;100.00;100012.69;5245577;28;21572;-76
2023/01/15 05:59:42;;;;;;;10.52;1.50;;;;;;;6.15;100.00;100011.34;5257317;28;20058;-76
2023/01/15 06:02:12;;;;;;;8.60;1.10;;;;;;;6.15;100.00;100017.50;5231657;28;20051;-76
2023/01/15 06:04:43;;;;;;;10.95;3.63;;;;;;;6.18;100.00;100008.38;5247150;28;20031;-76
2023/01/15 06:07:13;;;;;;;10.75;2.03;;;;;;;6.15;100.00;100014.81;5245916;28;20107;-76
2023/01/15 06:09:44;;;;;;;13.55;1.65;;;;;;;6.14;100.00;100020.31;5246014;28;20029;-76
2023/01/15 06:12:14;;;;;;;9.73;2.35;;;;;;;6.13;100.00;100018.66;5246741;28;20032;-76
2023/01/15 06:14:45;;;;;;;5.93;1.13;;;;;;;6.13;100.00;100022.16;5257292;28;20492;-76
2023/01/15 06:17:15;;;;;;;9.48;2.42;;;;;;;6.15;100.00;100024.66;5228051;28;20029;-76
2023/01/15 06:19:46;;;;;;;14.88;4.60;;;;;;;6.15;100.00;100043.28;5246166;28;20028;-76
2023/01/15 06:22:17;;;;;;;15.23;3.33;;;;;;;6.15;100.00;100044.13;5228046;28;20477;-76
2023/01/15 06:24:47;;;;;;;11.35;5.43;;;;;;;6.09;100.00;100052.75;5228426;28;20099;-75
2023/01/15 06:27:18;;;;;;;11.05;2.42;;;;;;;6.02;100.00;100059.66;5245880;28;20024;-76
2023/01/15 06:29:48;;;;;;;7.93;1.80;;;;;;;5.95;100.00;100053.31;5245919;28;20377;-75
2023/01/15 06:32:18;;;;;;;10.98;3.35;;;;;;;5.92;100.00;100059.78;5245955;28;20115;-76
2023/01/15 06:34:49;;;;;;;6.50;1.65;;;;;;;5.72;100.00;100066.22;5245831;28;20032;-76
2023/01/15 06:37:19;;;;;;;5.28;1.17;;;;;;;5.66;100.00;100074.84;5245397;28;20020;-75
2023/01/15 06:39:50;;;;;;;7.45;2.15;;;;;;;5.62;100.00;100073.47;5217289;28;20107;-76
2023/01/15 06:48:00;;;;;;;3.97;0.77;;;;;;;5.55;100.00;100067.09;5231077;28;20365;-76
2023/01/15 06:50:31;;;;;;;3.95;0.70;;;;;;;5.48;100.00;100074.03;5244283;28;20035;-76
2023/01/15 06:53:01;;;;;;;2.47;0.70;;;;;;;5.38;100.00;100074.09;5244130;28;20542;-75
2023/01/15 06:55:31;;;;;;;4.20;0.68;;;;;;;5.29;100.00;100075.00;5257609;28;20535;-76
2023/01/15 06:58:03;;;;;;;6.45;1.10;;;;;;;5.25;100.00;100070.97;5243715;28;20009;-77
2023/01/15 07:00:33;;;;;;;4.03;0.90;;;;;;;5.22;100.00;100074.78;5261159;28;20024;-76
2023/01/15 07:03:04;;;;;;;5.38;0.70;;;;;;;5.21;100.00;100070.41;5234376;28;20031;-77
2023/01/15 07:05:38;;;;;;;10.15;1.67;;;;;;;5.16;100.00;100081.50;5244005;28;20250;-76
2023/01/15 07:08:08;;;;;;;3.97;1.05;;;;;;;5.13;100.00;100084.47;5241993;28;20024;-76
2023/01/15 07:10:39;;;;;;;5.85;1.27;;;;;;;5.06;100.00;100087.88;5225667;28;20119;-76
2023/01/15 07:13:09;;;;;;;11.13;6.05;;;;;;;5.06;100.00;100087.88;5243696;28;20033;-76
2023/01/15 07:15:40;;;;;;;7.43;3.33;;;;;;;5.06;100.00;100101.16;5253718;28;20529;-76
2023/01/15 07:18:10;;;;;;;7.35;2.13;;;;;;;5.04;100.00;100101.31;5246696;28;20477;-76
2023/01/15 07:20:41;;;;;;;2.67;0.70;;;;;;;5.00;100.00;100102.59;5243639;28;20058;-76
2023/01/15 07:23:11;;;;;;;9.45;1.83;;;;;;;4.94;100.00;100106.69;5243464;28;20019;-76
2023/01/15 07:25:42;;;;;;;7.60;1.40;;;;;;;4.92;100.00;100108.69;5243639;28;20106;-76
2023/01/15 07:28:12;;;;;;;6.15;1.63;;;;;;;4.86;100.00;100097.78;5225196;28;20021;-76
2023/01/15 07:30:43;;;;;;;8.38;0.98;;;;;;;4.86;100.00;100103.09;5225259;28;20035;-77
2023/01/15 07:33:13;;;;;;;7.65;1.38;;;;;;;4.89;100.00;100105.47;5225299;28;20469;-77
2023/01/15 07:35:43;;;;;;;9.93;3.53;;;;;;;4.87;100.00;100100.31;5225580;28;20420;-76
2023/01/15 07:38:14;;;;;;;8.90;3.10;;;;;;;4.88;100.00;100103.81;5243390;28;20440;-76
2023/01/15 07:49:44;;;;;;;8.02;1.27;;;;;;;4.92;100.00;100108.69;5243465;28;20029;-76
2023/01/15 07:52:02;;;;;;;12.18;2.17;;;;;;;5.02;100.00;100108.63;5242790;28;20028;-77
2023/01/15 07:54:32;;;;;;;12.38;1.58;;;;;;;4.99;100.00;100110.72;5252609;28;20031;-76
2023/01/15 07:57:04;;;;;;;5.93;1.20;;;;;;;4.97;100.00;100113.56;5228748;28;20498;-76
2023/01/15 07:59:34;;;;;;;8.45;1.10;;;;;;;5.03;100.00;100114.78;5242979;28;20460;-75
2023/01/15 08:02:05;;;;;;;6.43;1.27;;;;;;;5.08;100.00;100118.66;5255468;28;20012;-76
2023/01/15 08:04:36;;;;;;;10.52;1.67;;;;;;;5.07;100.00;100113.47;5255406;28;20028;-76
2023/01/15 08:07:07;;;;;;;6.32;1.30;;;;;;;5.08;100.00;100123.97;5244312;28;20021;-76
2023/01/15 08:09:37;;;;;;;6.15;1.58;;;;;;;5.09;100.00;100116.84;5242845;28;20036;-76
2023/01/15 08:15:14;;;;;;;16.77;2.33;;;;;;;5.12;100.00;100117.38;5246442;28;20081;-76
2023/01/15 08:17:46;;;;;;;6.32;1.33;;;;;;;5.10;100.00;100122.00;5250760;28;20540;-75
2023/01/15 08:20:24;;;;;;;10.95;2.35;;;;;;;5.12;100.00;100124.50;5239030;28;20016;-77
2023/01/15 08:22:54;;;;;;;8.48;2.35;;;;;;;5.17;100.00;100122.22;5233596;28;20637;-76
2023/01/15 08:25:25;;;;;;;7.57;1.33;;;;;;;5.26;100.00;100129.31;5247066;28;20115;-77
2023/01/15 08:28:01;;;;;;;9.00;1.55;;;;;;;5.41;100.00;100130.47;5229031;28;20031;-76
2023/01/15 08:30:31;;;;;;;4.50;1.80;;;;;;;5.66;100.00;100136.03;5246771;28;20175;-76
2023/01/15 08:33:02;;;;;;;13.18;2.88;;;;;;;5.85;100.00;100122.59;5228690;28;20112;-76
2023/01/15 08:35:33;;;;;;;7.88;1.17;;;;;;;6.09;100.00;100123.81;5229570;28;20024;-77
2023/01/15 08:38:05;;;;;;;14.05;2.03;;;;;;;6.21;100.00;100111.91;5229271;28;20032;-77
2023/01/15 08:40:57;;;;;;;10.63;1.60;;;;;;;6.31;100.00;100112.63;5246402;28;20150;-76
2023/01/15 08:43:29;;;;;;;11.77;1.70;;;;;;;6.56;100.00;100102.13;5246120;28;20055;-77
2023/01/15 08:46:02;;;;;;;9.75;1.52;;;;;;;6.67;100.00;100101.84;5251074;28;20580;-76
2023/01/15 08:48:33;;;;;;;13.90;2.35;;;;;;;6.65;100.00;100099.34;5254872;28;20028;-77
2023/01/15 08:51:05;;;;;;;11.30;1.80;;;;;;;6.98;100.00;100100.34;5229449;28;20021;-76
2023/01/15 08:53:37;;;;;;;9.68;1.30;;;;;;;7.12;100.00;100098.84;5247151;28;20024;-77
2023/01/15 08:56:15;;;;;;;12.98;1.92;;;;;;;7.29;100.00;100097.09;5228987;28;20028;-77
2023/01/15 08:58:47;;;;;;;13.30;1.95;;;;;;;7.32;100.00;100095.91;5246545;28;20408;-77
2023/01/15 09:01:18;;;;;;;8.93;1.30;;;;;;;7.48;100.00;100109.28;5228642;28;20026;-77
2023/01/15 09:03:48;;;;;;;7.30;1.73;;;;;;;7.50;100.00;100105.47;5237992;28;20028;-77
2023/01/15 09:06:18;;;;;;;9.23;1.48;;;;;;;7.46;100.00;100104.13;5237464;28;20028;-77
2023/01/15 09:08:49;;;;;;;8.38;1.52;;;;;;;7.25;100.00;100101.91;5246128;28;20561;-77
2023/01/15 09:11:19;;;;;;;4.97;1.63;;;;;;;7.72;100.00;100097.81;5246211;28;20032;-77
2023/01/15 09:13:50;;;;;;;15.15;2.47;;;;;;;7.74;100.00;100118.00;5228719;28;20024;-77
2023/01/15 09:16:21;;;;;;;16.42;2.00;;;;;;;7.87;100.00;100117.50;5228549;28;20036;-77
2023/01/15 09:18:52;;;;;;;12.98;1.90;;;;;;;7.77;100.00;100114.16;5246830;28;20020;-77
2023/01/15 09:21:22;;;;;;;10.13;1.38;;;;;;;7.63;100.00;100130.81;5228407;28;20052;-77
2023/01/15 09:23:53;;;;;;;6.65;1.35;;;;;;;7.80;100.00;100137.88;5228687;28;20032;-76
2023/01/15 09:26:32;;;;;;;9.98;1.65;;;;;;;8.30;100.00;100132.34;5246258;28;20029;-78
2023/01/15 09:29:04;;;;;;;7.97;1.40;;;;;;;8.23;100.00;100136.72;5228114;28;20052;-77
2023/01/15 09:31:35;;;;;;;10.02;2.17;;;;;;;8.21;100.00;100141.38;5226951;28;20031;-77
2023/01/15 09:34:05;;;;;;;8.98;1.95;;;;;;;7.92;100.00;100141.88;5245992;28;20447;-77
2023/01/15 09:36:36;;;;;;;10.88;1.55;;;;;;;7.34;100.00;100126.78;5236053;28;20020;-77
2023/01/15 09:39:06;;;;;;;10.70;1.55;;;;;;;7.81;100.00;100133.38;5265921;28;20114;-77
2023/01/15 09:42:07;;;;;;;11.02;1.40;;;;;;;7.97;100.00;100147.56;5245943;28;20025;-77
2023/01/15 09:45:13;;;;;;;7.15;1.58;;;;;;;8.33;100.00;100149.88;5228803;28;20028;-77
2023/01/15 09:48:17;;;;;;;13.05;1.42;;;;;;;7.78;100.00;100158.53;5201455;28;20079;-77
2023/01/15 09:51:05;;;;;;;8.20;1.27;;;;;;;7.75;100.00;100156.22;5259627;28;20032;-77
2023/01/15 09:53:53;;;;;;;10.45;1.70;;;;;;;7.44;100.00;100167.50;5245296;28;20377;-77
2023/01/15 09:56:27;;;;;;;6.38;1.60;;;;;;;7.34;100.00;100185.50;5227334;28;20415;-77
2023/01/15 09:59:04;;;;;;;7.20;1.52;;;;;;;7.14;100.00;100176.06;5249325;28;20046;-76
2023/01/15 10:01:34;;;;;;;7.82;1.02;;;;;;;7.36;100.00;100161.31;5253204;28;20017;-76
2023/01/15 10:04:29;;;;;;;8.90;1.80;;;;;;;7.46;100.00;100176.19;5245303;28;20027;-77
2023/01/15 10:07:33;;;;;;;4.95;1.13;;;;;;;7.47;100.00;100171.66;5226561;28;20028;-77
2023/01/15 10:10:12;;;;;;;2.85;0.90;;;;;;;7.19;100.00;100176.44;5247864;28;20097;-76
2023/01/15 10:12:44;;;;;;;8.27;1.60;;;;;;;7.01;100.00;100174.66;5235843;28;20046;-76
2023/01/15 10:15:38;;;;;;;8.75;2.05;;;;;;;6.77;100.00;100195.88;5244850;28;20036;-76
2023/01/15 10:18:21;;;;;;;4.22;1.00;;;;;;;6.57;100.00;100192.56;5244456;28;20547;-76
2023/01/15 10:21:06;;;;;;;3.53;0.73;;;;;;;6.56;100.00;100195.41;5244800;28;20020;-76
2023/01/15 10:24:01;;;;;;;7.38;1.23;;;;;;;6.74;100.00;100186.38;5238744;28;20016;-77
2023/01/15 10:26:39;;;;;;;5.40;0.90;;;;;;;6.52;100.00;100199.38;5246355;28;20037;-76
2023/01/15 10:29:22;;;;;;;7.70;1.20;;;;;;;6.28;100.00;100182.22;5258290;28;20028;-76
2023/01/15 10:32:00;;;;;;;6.10;1.02;;;;;;;6.36;100.00;100197.41;5241234;28;20101;-76
2023/01/15 10:34:48;;;;;;;4.40;1.15;;;;;;;6.45;100.00;100197.34;5251638;28;20030;-76
2023/01/15 10:37:28;;;;;;;3.85;0.98;;;;;;;6.12;100.00;100182.06;5251296;28;20039;-76
2023/01/15 10:40:24;;;;;;;2.88;0.90;;;;;;;6.12;100.00;100182.06;5244445;28;20428;-76
2023/01/15 10:43:38;;;;;;;7.63;0.85;;;;;;;6.26;100.00;100191.34;5243728;28;20062;-77
2023/01/15 10:46:15;;;;;;;6.50;1.25;;;;;;;6.52;100.00;100196.69;5257966;28;20027;-77
2023/01/15 10:48:50;;;;;;;4.82;1.10;;;;;;;6.65;100.00;100191.81;5243424;28;20039;-77
2023/01/15 10:51:23;;;;;;;5.15;0.80;;;;;;;6.81;100.00;100199.91;5253170;28;20604;-77
2023/01/15 10:54:32;;;;;;;3.72;0.70;;;;;;;6.86;100.00;100208.25;5251155;28;20024;-77
2023/01/15 10:57:23;;;;;;;10.18;1.27;;;;;;;6.93;100.00;100192.47;5232155;28;20123;-77
2023/01/15 10:59:59;;;;;;;5.18;1.48;;;;;;;7.04;100.00;100215.38;5238411;28;20446;-77
2023/01/15 11:02:39;;;;;;;5.95;1.00;;;;;;;6.91;100.00;100197.13;5231027;28;20020;-77
2023/01/15 11:05:20;;;;;;;6.22;0.98;;;;;;;6.91;100.00;100181.94;5244696;28;20052;-77
2023/01/15 11:07:52;;;;;;;3.85;0.85;;;;;;;6.91;100.00;100192.63;5226771;28;20107;-77
2023/01/15 11:10:23;;;;;;;2.65;0.52;;;;;;;6.78;100.00;100199.38;5243691;28;20020;-77
2023/01/15 11:21:33;;;;;;;9.32;2.72;;;;;;;7.04;100.00;100202.88;5260095;28;20503;-77
2023/01/15 11:24:14;;;;;;;4.95;1.20;;;;;;;7.03;100.00;100187.00;5256357;28;20021;-76
2023/01/15 11:26:47;;;;;;;6.03;1.20;;;;;;;7.11;100.00;100176.38;5238846;28;20085;-75
2023/01/15 11:29:27;;;;;;;10.23;1.08;;;;;;;7.08;100.00;100158.88;5244022;28;20052;-76
2023/01/15 11:31:58;;;;;;;5.70;1.10;;;;;;;7.01;100.00;100168.50;5244057;28;20035;-76
2023/01/15 11:34:28;;;;;;;4.97;1.50;;;;;;;7.06;100.00;100168.84;5239147;28;20032;-76
2023/01/15 11:37:04;;;;;;;5.05;2.03;;;;;;;7.46;100.00;100180.69;5243126;28;20584;-76
2023/01/15 11:39:35;;;;;;;4.93;1.35;;;;;;;7.47;100.00;100174.34;5245274;28;20031;-76
2023/01/15 11:51:16;;;;;;;6.43;1.27;;;;;;;7.16;100.00;100179.41;5230273;28;20551;-77
2023/01/15 11:53:52;;;;;;;7.05;1.63;;;;;;;7.04;100.00;100159.38;5256807;28;20052;-77
2023/01/15 11:56:30;;;;;;;7.75;1.20;;;;;;;7.11;100.00;100155.03;5243583;28;20016;-76
2023/01/15 11:59:08;;;;;;;5.82;1.25;;;;;;;7.09;100.00;100157.88;5235217;28;20026;-76
2023/01/15 12:01:53;;;;;;;3.42;0.75;;;;;;;7.18;100.00;100148.09;5248473;28;20103;-77
2023/01/15 12:04:33;;;;;;;7.22;0.80;;;;;;;7.38;100.00;100144.16;5225325;28;20024;-76
2023/01/15 12:07:10;;;;;;;8.48;1.30;;;;;;;7.46;100.00;100160.16;5242018;28;20033;-77
2023/01/15 12:09:44;;;;;;;6.13;1.30;;;;;;;7.46;100.00;100152.16;5226401;28;20029;-76
2023/01/15 12:12:30;;;;;;;7.32;1.73;;;;;;;7.43;100.00;100151.63;5244219;28;20044;-77
2023/01/15 12:15:28;;;;;;;10.80;1.48;;;;;;;7.31;100.00;100144.94;5248121;28;20433;-77
2023/01/15 12:18:27;;;;;;;5.35;1.88;;;;;;;7.23;100.00;100135.09;5233485;28;20103;-77
2023/01/15 12:21:29;;;;;;;6.15;1.20;;;;;;;7.23;100.00;100161.78;5247185;28;20043;-75
2023/01/15 12:24:03;;;;;;;6.72;1.45;;;;;;;7.11;100.00;100163.03;5227903;28;20514;-77
2023/01/15 12:27:12;;;;;;;5.72;1.88;;;;;;;7.14;100.00;100138.72;5227963;28;20028;-76
2023/01/15 12:29:48;;;;;;;8.40;2.70;;;;;;;7.21;100.00;100142.41;5244454;28;20048;-76
2023/01/15 12:32:30;;;;;;;12.10;5.82;;;;;;;7.29;100.00;100133.63;5244345;28;20024;-77
2023/01/15 12:35:14;;;;;;;2.17;1.60;;;;;;;7.23;100.00;100151.94;5231498;28;20037;-76
2023/01/15 12:37:51;;;;;;;6.57;1.45;;;;;;;7.22;100.00;100150.25;5247495;28;20016;-77
2023/01/15 12:40:39;;;;;;;10.73;1.88;;;;;;;7.09;100.00;100141.03;5234835;28;20021;-76
2023/01/15 12:46:21;;;;;;;7.70;1.50;;;;;;;7.10;100.00;100140.88;5230881;28;20082;-76